sensor_id;sensor_type;location;lat;lon;timestamp;pressure;altitude;pressure_sealevel;temperature;humidity
5380;BME280;2713;42.680;23.310;2022-08-19T00:00:50;94809.94;;;26.52;50.22
5380;BME280;2713;42.680;23.310;2022-08-19T00:03:17;94812.59;;;26.29;50.29
5380;BME280;2713;42.680;23.310;2022-08-19T00:05:44;94811.00;;;26.28;50.24
5380;BME280;2713;42.680;23.310;2022-08-19T00:08:12;94807.00;;;26.30;50.27
5380;BME280;2713;42.680;23.310;2022-08-19T00:10:39;94810.44;;;26.31;50.52
5380;BME280;2713;42.680;23.310;2022-08-19T00:13:05;94785.50;;;26.21;50.61
5380;BME280;2713;42.680;23.310;2022-08-19T00:15:33;94809.31;;;26.37;50.25
5380;BME280;2713;42.680;23.310;2022-08-19T00:18:00;94812.25;;;26.35;50.81
5380;BME280;2713;42.680;23.310;2022-08-19T00:20:26;94819.28;;;26.50;50.60
5380;BME280;2713;42.680;23.310;2022-08-19T00:22:53;94821.31;;;26.34;50.47
5380;BME280;2713;42.680;23.310;2022-08-19T00:25:22;94830.97;;;26.30;50.49
5380;BME280;2713;42.680;23.310;2022-08-19T00:27:49;94820.47;;;26.10;51.49
5380;BME280;2713;42.680;23.310;2022-08-19T00:30:16;94828.34;;;25.96;51.28
5380;BME280;2713;42.680;23.310;2022-08-19T00:32:42;94821.38;;;26.00;51.88
5380;BME280;2713;42.680;23.310;2022-08-19T00:35:09;94809.28;;;25.84;51.85
5380;BME280;2713;42.680;23.310;2022-08-19T00:37:37;94815.81;;;25.97;51.45
5380;BME280;2713;42.680;23.310;2022-08-19T00:40:11;94816.44;;;25.89;51.20
5380;BME280;2713;42.680;23.310;2022-08-19T00:42:40;94810.03;;;25.90;51.62
5380;BME280;2713;42.680;23.310;2022-08-19T00:45:12;94804.41;;;25.91;51.84
5380;BME280;2713;42.680;23.310;2022-08-19T00:47:39;94809.44;;;25.93;51.93
5380;BME280;2713;42.680;23.310;2022-08-19T00:50:08;94807.25;;;26.00;52.56
5380;BME280;2713;42.680;23.310;2022-08-19T00:52:40;94812.22;;;25.83;52.81
5380;BME280;2713;42.680;23.310;2022-08-19T00:55:13;94815.19;;;25.76;52.44
5380;BME280;2713;42.680;23.310;2022-08-19T00:57:44;94802.66;;;25.82;52.01
5380;BME280;2713;42.680;23.310;2022-08-19T01:00:15;94799.91;;;25.92;52.57
5380;BME280;2713;42.680;23.310;2022-08-19T01:02:43;94814.78;;;25.93;52.91
5380;BME280;2713;42.680;23.310;2022-08-19T01:05:14;94807.88;;;25.92;52.75
5380;BME280;2713;42.680;23.310;2022-08-19T01:07:44;94811.84;;;25.94;53.31
5380;BME280;2713;42.680;23.310;2022-08-19T01:10:13;94824.66;;;25.92;52.95
5380;BME280;2713;42.680;23.310;2022-08-19T01:12:42;94810.66;;;25.82;53.31
5380;BME280;2713;42.680;23.310;2022-08-19T01:15:12;94815.97;;;25.82;52.72
5380;BME280;2713;42.680;23.310;2022-08-19T01:17:41;94814.47;;;25.70;52.67
5380;BME280;2713;42.680;23.310;2022-08-19T01:20:11;94809.53;;;25.83;52.33
5380;BME280;2713;42.680;23.310;2022-08-19T01:22:43;94809.88;;;25.76;52.30
5380;BME280;2713;42.680;23.310;2022-08-19T01:25:12;94804.78;;;25.80;51.35
5380;BME280;2713;42.680;23.310;2022-08-19T01:27:40;94786.63;;;25.58;50.85
5380;BME280;2713;42.680;23.310;2022-08-19T01:30:08;94802.88;;;25.56;51.33
5380;BME280;2713;42.680;23.310;2022-08-19T01:32:35;94809.34;;;25.40;51.50
5380;BME280;2713;42.680;23.310;2022-08-19T01:35:03;94812.09;;;25.25;51.64
5380;BME280;2713;42.680;23.310;2022-08-19T01:37:43;94813.06;;;25.39;50.48
5380;BME280;2713;42.680;23.310;2022-08-19T01:40:10;94810.06;;;25.12;50.56
5380;BME280;2713;42.680;23.310;2022-08-19T01:42:37;94814.53;;;25.21;50.75
5380;BME280;2713;42.680;23.310;2022-08-19T01:45:05;94812.91;;;25.26;50.71
5380;BME280;2713;42.680;23.310;2022-08-19T01:47:33;94811.28;;;25.30;50.50
5380;BME280;2713;42.680;23.310;2022-08-19T01:50:00;94812.16;;;25.20;51.11
5380;BME280;2713;42.680;23.310;2022-08-19T01:52:27;94813.41;;;25.28;51.10
5380;BME280;2713;42.680;23.310;2022-08-19T01:54:55;94814.81;;;25.20;51.60
5380;BME280;2713;42.680;23.310;2022-08-19T01:57:22;94813.97;;;25.24;51.66
5380;BME280;2713;42.680;23.310;2022-08-19T01:59:49;94818.78;;;25.22;51.71
5380;BME280;2713;42.680;23.310;2022-08-19T02:02:17;94817.97;;;25.27;52.20
5380;BME280;2713;42.680;23.310;2022-08-19T02:04:43;94820.25;;;25.39;52.02
5380;BME280;2713;42.680;23.310;2022-08-19T02:07:11;94818.69;;;25.38;51.91
5380;BME280;2713;42.680;23.310;2022-08-19T02:09:38;94823.03;;;25.23;52.36
5380;BME280;2713;42.680;23.310;2022-08-19T02:12:06;94814.38;;;25.03;53.15
5380;BME280;2713;42.680;23.310;2022-08-19T02:14:34;94816.50;;;25.01;52.85
5380;BME280;2713;42.680;23.310;2022-08-19T02:17:01;94818.63;;;25.04;53.11
5380;BME280;2713;42.680;23.310;2022-08-19T02:19:28;94812.72;;;25.17;53.35
5380;BME280;2713;42.680;23.310;2022-08-19T02:21:57;94822.25;;;25.18;52.79
5380;BME280;2713;42.680;23.310;2022-08-19T02:24:25;94806.41;;;25.03;53.41
5380;BME280;2713;42.680;23.310;2022-08-19T02:26:52;94814.59;;;25.11;53.01
5380;BME280;2713;42.680;23.310;2022-08-19T02:29:20;94818.09;;;25.07;53.25
5380;BME280;2713;42.680;23.310;2022-08-19T02:31:47;94818.38;;;25.00;53.87
5380;BME280;2713;42.680;23.310;2022-08-19T02:34:14;94816.75;;;25.09;53.40
5380;BME280;2713;42.680;23.310;2022-08-19T02:36:41;94809.56;;;25.05;53.45
5380;BME280;2713;42.680;23.310;2022-08-19T02:39:08;94797.34;;;25.04;53.44
5380;BME280;2713;42.680;23.310;2022-08-19T02:41:34;94815.38;;;25.17;53.73
5380;BME280;2713;42.680;23.310;2022-08-19T02:44:02;94815.97;;;25.04;54.22
5380;BME280;2713;42.680;23.310;2022-08-19T02:46:32;94820.16;;;25.15;53.94
5380;BME280;2713;42.680;23.310;2022-08-19T02:49:01;94816.50;;;25.06;54.69
5380;BME280;2713;42.680;23.310;2022-08-19T02:51:33;94816.56;;;24.96;54.54
5380;BME280;2713;42.680;23.310;2022-08-19T02:54:00;94825.03;;;24.98;54.55
5380;BME280;2713;42.680;23.310;2022-08-19T02:56:27;94826.16;;;24.92;54.78
5380;BME280;2713;42.680;23.310;2022-08-19T02:58:54;94826.72;;;24.84;55.04
5380;BME280;2713;42.680;23.310;2022-08-19T03:01:23;94822.25;;;24.64;55.24
5380;BME280;2713;42.680;23.310;2022-08-19T03:03:51;94821.44;;;24.68;55.04
5380;BME280;2713;42.680;23.310;2022-08-19T03:06:19;94842.50;;;24.50;55.65
5380;BME280;2713;42.680;23.310;2022-08-19T03:08:47;94830.09;;;24.30;56.08
5380;BME280;2713;42.680;23.310;2022-08-19T03:11:16;94822.69;;;24.07;56.53
5380;BME280;2713;42.680;23.310;2022-08-19T03:13:43;94823.75;;;23.91;56.83
5380;BME280;2713;42.680;23.310;2022-08-19T03:16:10;94819.50;;;23.85;57.02
5380;BME280;2713;42.680;23.310;2022-08-19T03:18:38;94825.84;;;24.09;56.33
5380;BME280;2713;42.680;23.310;2022-08-19T03:21:06;94824.00;;;24.14;56.30
5380;BME280;2713;42.680;23.310;2022-08-19T03:23:34;94819.72;;;24.29;55.76
5380;BME280;2713;42.680;23.310;2022-08-19T03:26:04;94826.63;;;24.30;55.46
5380;BME280;2713;42.680;23.310;2022-08-19T03:28:32;94818.63;;;24.45;55.22
5380;BME280;2713;42.680;23.310;2022-08-19T03:31:02;94821.78;;;24.47;55.12
5380;BME280;2713;42.680;23.310;2022-08-19T03:33:30;94828.47;;;24.34;56.00
5380;BME280;2713;42.680;23.310;2022-08-19T03:36:08;94825.28;;;24.37;55.90
5380;BME280;2713;42.680;23.310;2022-08-19T03:38:37;94830.28;;;24.49;55.50
5380;BME280;2713;42.680;23.310;2022-08-19T03:41:06;94823.69;;;24.36;55.87
5380;BME280;2713;42.680;23.310;2022-08-19T03:43:34;94832.50;;;24.16;56.49
5380;BME280;2713;42.680;23.310;2022-08-19T03:46:03;94836.16;;;24.36;56.12
5380;BME280;2713;42.680;23.310;2022-08-19T03:48:31;94842.78;;;24.43;55.89
5380;BME280;2713;42.680;23.310;2022-08-19T03:50:59;94842.53;;;24.45;56.22
5380;BME280;2713;42.680;23.310;2022-08-19T03:53:28;94847.84;;;24.40;56.23
5380;BME280;2713;42.680;23.310;2022-08-19T03:55:56;94845.72;;;24.47;55.98
5380;BME280;2713;42.680;23.310;2022-08-19T03:58:25;94855.03;;;24.44;55.83
5380;BME280;2713;42.680;23.310;2022-08-19T04:00:53;94854.22;;;24.39;55.94
5380;BME280;2713;42.680;23.310;2022-08-19T04:03:20;94853.66;;;24.57;55.53
5380;BME280;2713;42.680;23.310;2022-08-19T04:05:46;94863.47;;;24.61;55.35
5380;BME280;2713;42.680;23.310;2022-08-19T04:08:14;94859.72;;;24.67;54.94
5380;BME280;2713;42.680;23.310;2022-08-19T04:10:48;94858.13;;;24.66;55.55
5380;BME280;2713;42.680;23.310;2022-08-19T04:13:15;94865.06;;;24.57;55.49
5380;BME280;2713;42.680;23.310;2022-08-19T04:15:44;94860.31;;;24.49;55.79
5380;BME280;2713;42.680;23.310;2022-08-19T04:18:12;94862.16;;;24.49;55.61
5380;BME280;2713;42.680;23.310;2022-08-19T04:20:44;94865.88;;;24.53;56.06
5380;BME280;2713;42.680;23.310;2022-08-19T04:23:11;94866.69;;;24.53;55.97
5380;BME280;2713;42.680;23.310;2022-08-19T04:25:40;94865.88;;;24.53;55.84
5380;BME280;2713;42.680;23.310;2022-08-19T04:28:10;94872.25;;;24.57;56.21
5380;BME280;2713;42.680;23.310;2022-08-19T04:30:40;94871.41;;;24.66;56.22
5380;BME280;2713;42.680;23.310;2022-08-19T04:33:08;94873.28;;;24.71;56.17
5380;BME280;2713;42.680;23.310;2022-08-19T04:35:37;94869.81;;;24.76;55.84
5380;BME280;2713;42.680;23.310;2022-08-19T04:38:05;94860.78;;;24.71;56.13
5380;BME280;2713;42.680;23.310;2022-08-19T04:40:32;94861.28;;;24.73;56.74
5380;BME280;2713;42.680;23.310;2022-08-19T04:43:18;94867.69;;;24.83;56.26
5380;BME280;2713;42.680;23.310;2022-08-19T04:45:45;94868.72;;;24.82;56.39
5380;BME280;2713;42.680;23.310;2022-08-19T04:48:12;94873.50;;;24.80;55.89
5380;BME280;2713;42.680;23.310;2022-08-19T04:50:41;94864.44;;;24.81;55.40
5380;BME280;2713;42.680;23.310;2022-08-19T04:53:09;94845.09;;;24.70;55.82
5380;BME280;2713;42.680;23.310;2022-08-19T04:55:39;94869.00;;;24.75;56.46
5380;BME280;2713;42.680;23.310;2022-08-19T04:58:06;94869.50;;;24.82;56.16
5380;BME280;2713;42.680;23.310;2022-08-19T05:00:37;94875.66;;;24.83;55.41
5380;BME280;2713;42.680;23.310;2022-08-19T05:03:05;94876.19;;;24.85;55.85
5380;BME280;2713;42.680;23.310;2022-08-19T05:05:32;94872.97;;;24.93;55.12
5380;BME280;2713;42.680;23.310;2022-08-19T05:07:59;94872.41;;;24.96;54.52
5380;BME280;2713;42.680;23.310;2022-08-19T05:10:26;94876.63;;;24.97;54.90
5380;BME280;2713;42.680;23.310;2022-08-19T05:12:53;94875.06;;;24.96;54.89
5380;BME280;2713;42.680;23.310;2022-08-19T05:15:20;94882.50;;;24.99;55.44
5380;BME280;2713;42.680;23.310;2022-08-19T05:17:48;94880.97;;;25.32;53.97
5380;BME280;2713;42.680;23.310;2022-08-19T05:20:29;94873.03;;;25.70;52.71
5380;BME280;2713;42.680;23.310;2022-08-19T05:23:13;94875.88;;;26.18;51.53
5380;BME280;2713;42.680;23.310;2022-08-19T05:25:41;94871.38;;;26.66;50.91
5380;BME280;2713;42.680;23.310;2022-08-19T05:28:08;94880.75;;;26.87;49.75
5380;BME280;2713;42.680;23.310;2022-08-19T05:30:35;94881.22;;;27.13;49.06
5380;BME280;2713;42.680;23.310;2022-08-19T05:33:03;94884.03;;;27.45;48.02
5380;BME280;2713;42.680;23.310;2022-08-19T05:35:30;94876.19;;;27.67;47.58
5380;BME280;2713;42.680;23.310;2022-08-19T05:37:57;94873.31;;;27.83;47.06
5380;BME280;2713;42.680;23.310;2022-08-19T05:40:24;94878.28;;;28.08;46.57
5380;BME280;2713;42.680;23.310;2022-08-19T05:42:51;94876.34;;;28.27;45.92
5380;BME280;2713;42.680;23.310;2022-08-19T05:45:19;94874.78;;;28.53;45.13
5380;BME280;2713;42.680;23.310;2022-08-19T05:47:47;94873.31;;;28.61;44.96
5380;BME280;2713;42.680;23.310;2022-08-19T05:50:16;94869.34;;;28.58;44.92
5380;BME280;2713;42.680;23.310;2022-08-19T05:52:43;94873.06;;;28.76;44.94
5380;BME280;2713;42.680;23.310;2022-08-19T05:55:10;94872.13;;;29.08;44.23
5380;BME280;2713;42.680;23.310;2022-08-19T05:57:37;94874.97;;;29.25;42.85
5380;BME280;2713;42.680;23.310;2022-08-19T06:00:05;94877.47;;;29.35;43.16
5380;BME280;2713;42.680;23.310;2022-08-19T06:02:38;94876.28;;;29.41;42.77
5380;BME280;2713;42.680;23.310;2022-08-19T06:05:05;94881.03;;;29.66;42.06
5380;BME280;2713;42.680;23.310;2022-08-19T06:07:35;94882.09;;;29.93;42.03
5380;BME280;2713;42.680;23.310;2022-08-19T06:10:04;94884.72;;;29.70;41.82
5380;BME280;2713;42.680;23.310;2022-08-19T06:12:32;94875.22;;;29.87;41.17
5380;BME280;2713;42.680;23.310;2022-08-19T06:15:01;94876.94;;;30.05;41.23
5380;BME280;2713;42.680;23.310;2022-08-19T06:17:29;94873.41;;;30.18;41.07
5380;BME280;2713;42.680;23.310;2022-08-19T06:19:56;94881.31;;;30.23;40.51
5380;BME280;2713;42.680;23.310;2022-08-19T06:22:23;94883.25;;;30.31;40.51
5380;BME280;2713;42.680;23.310;2022-08-19T06:24:52;94878.13;;;30.21;40.98
5380;BME280;2713;42.680;23.310;2022-08-19T06:27:19;94879.94;;;30.56;39.95
5380;BME280;2713;42.680;23.310;2022-08-19T06:29:46;94877.78;;;30.67;39.32
5380;BME280;2713;42.680;23.310;2022-08-19T06:32:15;94879.03;;;30.61;39.68
5380;BME280;2713;42.680;23.310;2022-08-19T06:34:43;94880.63;;;30.71;39.36
5380;BME280;2713;42.680;23.310;2022-08-19T06:37:11;94882.06;;;30.77;39.26
5380;BME280;2713;42.680;23.310;2022-08-19T06:39:40;94879.84;;;30.70;39.44
5380;BME280;2713;42.680;23.310;2022-08-19T06:42:09;94888.88;;;30.83;39.86
5380;BME280;2713;42.680;23.310;2022-08-19T06:44:40;94884.28;;;31.05;39.03
5380;BME280;2713;42.680;23.310;2022-08-19T06:47:09;94878.78;;;31.19;38.52
5380;BME280;2713;42.680;23.310;2022-08-19T06:49:37;94874.06;;;31.33;38.05
5380;BME280;2713;42.680;23.310;2022-08-19T06:52:04;94881.78;;;31.35;38.23
5380;BME280;2713;42.680;23.310;2022-08-19T06:54:32;94878.22;;;31.56;37.71
5380;BME280;2713;42.680;23.310;2022-08-19T06:57:00;94888.31;;;31.51;37.73
5380;BME280;2713;42.680;23.310;2022-08-19T06:59:30;94876.31;;;31.57;37.03
5380;BME280;2713;42.680;23.310;2022-08-19T07:01:59;94884.34;;;31.48;37.96
5380;BME280;2713;42.680;23.310;2022-08-19T07:04:28;94891.66;;;31.65;37.41
5380;BME280;2713;42.680;23.310;2022-08-19T07:06:57;94884.88;;;31.85;37.47
5380;BME280;2713;42.680;23.310;2022-08-19T07:09:25;94886.13;;;31.79;37.08
5380;BME280;2713;42.680;23.310;2022-08-19T07:11:53;94884.53;;;31.95;37.45
5380;BME280;2713;42.680;23.310;2022-08-19T07:14:21;94886.56;;;32.32;36.98
5380;BME280;2713;42.680;23.310;2022-08-19T07:16:52;94880.84;;;32.42;36.30
5380;BME280;2713;42.680;23.310;2022-08-19T07:19:21;94889.41;;;32.36;36.39
5380;BME280;2713;42.680;23.310;2022-08-19T07:21:49;94885.09;;;32.52;36.07
5380;BME280;2713;42.680;23.310;2022-08-19T07:24:18;94883.88;;;32.24;36.86
5380;BME280;2713;42.680;23.310;2022-08-19T07:26:45;94887.31;;;32.41;36.73
5380;BME280;2713;42.680;23.310;2022-08-19T07:29:12;94880.81;;;32.59;36.96
5380;BME280;2713;42.680;23.310;2022-08-19T07:31:40;94879.31;;;32.79;35.35
5380;BME280;2713;42.680;23.310;2022-08-19T07:34:10;94883.56;;;32.25;36.24
5380;BME280;2713;42.680;23.310;2022-08-19T07:36:40;94868.22;;;32.17;36.57
5380;BME280;2713;42.680;23.310;2022-08-19T07:39:10;94882.50;;;32.73;36.51
5380;BME280;2713;42.680;23.310;2022-08-19T07:41:37;94869.59;;;32.40;36.09
5380;BME280;2713;42.680;23.310;2022-08-19T07:44:05;94875.91;;;32.44;36.61
5380;BME280;2713;42.680;23.310;2022-08-19T07:46:35;94871.59;;;32.60;36.36
5380;BME280;2713;42.680;23.310;2022-08-19T07:49:06;94881.06;;;32.75;35.90
5380;BME280;2713;42.680;23.310;2022-08-19T07:51:34;94877.72;;;33.16;35.87
5380;BME280;2713;42.680;23.310;2022-08-19T07:54:01;94875.31;;;33.23;35.43
5380;BME280;2713;42.680;23.310;2022-08-19T07:56:28;94879.47;;;33.41;34.10
5380;BME280;2713;42.680;23.310;2022-08-19T07:58:55;94855.13;;;33.29;34.01
5380;BME280;2713;42.680;23.310;2022-08-19T08:01:24;94879.97;;;33.14;34.46
5380;BME280;2713;42.680;23.310;2022-08-19T08:03:52;94879.22;;;33.34;34.99
5380;BME280;2713;42.680;23.310;2022-08-19T08:06:38;94877.47;;;33.59;33.79
5380;BME280;2713;42.680;23.310;2022-08-19T08:09:25;94874.75;;;34.00;32.86
5380;BME280;2713;42.680;23.310;2022-08-19T08:11:56;94872.94;;;34.13;32.85
5380;BME280;2713;42.680;23.310;2022-08-19T08:14:27;94873.00;;;34.37;32.42
5380;BME280;2713;42.680;23.310;2022-08-19T08:16:54;94865.41;;;33.98;32.47
5380;BME280;2713;42.680;23.310;2022-08-19T08:19:23;94861.38;;;34.25;32.24
5380;BME280;2713;42.680;23.310;2022-08-19T08:21:52;94865.47;;;34.43;31.92
5380;BME280;2713;42.680;23.310;2022-08-19T08:24:19;94864.13;;;34.49;31.53
5380;BME280;2713;42.680;23.310;2022-08-19T08:26:46;94859.22;;;34.63;31.47
5380;BME280;2713;42.680;23.310;2022-08-19T08:29:13;94862.50;;;34.69;31.73
5380;BME280;2713;42.680;23.310;2022-08-19T08:31:42;94858.00;;;34.97;31.36
5380;BME280;2713;42.680;23.310;2022-08-19T08:34:11;94854.84;;;34.95;30.67
5380;BME280;2713;42.680;23.310;2022-08-19T08:36:38;94852.59;;;34.85;31.10
5380;BME280;2713;42.680;23.310;2022-08-19T08:39:09;94853.97;;;35.03;30.85
5380;BME280;2713;42.680;23.310;2022-08-19T08:41:44;94847.78;;;35.27;30.61
5380;BME280;2713;42.680;23.310;2022-08-19T08:44:16;94850.94;;;35.17;31.21
5380;BME280;2713;42.680;23.310;2022-08-19T08:46:47;94842.91;;;35.32;31.30
5380;BME280;2713;42.680;23.310;2022-08-19T08:49:23;94841.69;;;34.93;31.42
5380;BME280;2713;42.680;23.310;2022-08-19T08:52:00;94839.56;;;34.99;31.23
5380;BME280;2713;42.680;23.310;2022-08-19T08:54:35;94839.56;;;34.99;30.92
5380;BME280;2713;42.680;23.310;2022-08-19T08:57:04;94833.81;;;34.88;30.77
5380;BME280;2713;42.680;23.310;2022-08-19T08:59:38;94835.06;;;35.03;30.39
5380;BME280;2713;42.680;23.310;2022-08-19T09:02:06;94834.69;;;35.04;30.17
5380;BME280;2713;42.680;23.310;2022-08-19T09:04:34;94815.69;;;34.89;30.20
5380;BME280;2713;42.680;23.310;2022-08-19T09:07:14;94825.78;;;35.04;29.16
5380;BME280;2713;42.680;23.310;2022-08-19T09:09:49;94830.72;;;35.38;28.66
5380;BME280;2713;42.680;23.310;2022-08-19T09:12:23;94828.97;;;35.30;28.72
5380;BME280;2713;42.680;23.310;2022-08-19T09:14:56;94821.91;;;35.14;28.22
5380;BME280;2713;42.680;23.310;2022-08-19T09:17:27;94820.50;;;35.07;28.52
5380;BME280;2713;42.680;23.310;2022-08-19T09:19:59;94819.75;;;35.19;27.79
5380;BME280;2713;42.680;23.310;2022-08-19T09:22:30;94814.72;;;35.45;27.44
5380;BME280;2713;42.680;23.310;2022-08-19T09:24:59;94812.69;;;35.54;27.33
5380;BME280;2713;42.680;23.310;2022-08-19T09:27:27;94812.03;;;35.85;27.04
5380;BME280;2713;42.680;23.310;2022-08-19T09:29:54;94789.41;;;35.78;26.76
5380;BME280;2713;42.680;23.310;2022-08-19T09:32:22;94810.53;;;35.60;26.30
5380;BME280;2713;42.680;23.310;2022-08-19T09:34:49;94801.25;;;35.73;26.57
5380;BME280;2713;42.680;23.310;2022-08-19T09:37:20;94803.91;;;35.45;25.57
5380;BME280;2713;42.680;23.310;2022-08-19T09:39:47;94804.22;;;35.68;25.69
5380;BME280;2713;42.680;23.310;2022-08-19T09:42:15;94800.25;;;35.66;25.34
5380;BME280;2713;42.680;23.310;2022-08-19T09:44:43;94800.88;;;35.47;25.95
5380;BME280;2713;42.680;23.310;2022-08-19T09:47:11;94795.53;;;35.63;25.89
5380;BME280;2713;42.680;23.310;2022-08-19T09:49:38;94799.28;;;35.86;24.72
5380;BME280;2713;42.680;23.310;2022-08-19T09:52:07;94802.56;;;35.51;24.95
5380;BME280;2713;42.680;23.310;2022-08-19T09:54:34;94796.31;;;35.63;25.29
5380;BME280;2713;42.680;23.310;2022-08-19T09:57:01;94773.41;;;35.73;25.21
5380;BME280;2713;42.680;23.310;2022-08-19T09:59:29;94790.09;;;35.75;25.06
5380;BME280;2713;42.680;23.310;2022-08-19T10:01:56;94781.88;;;35.71;24.61
5380;BME280;2713;42.680;23.310;2022-08-19T10:04:23;94780.31;;;35.58;24.67
5380;BME280;2713;42.680;23.310;2022-08-19T10:07:10;94782.25;;;35.85;24.91
5380;BME280;2713;42.680;23.310;2022-08-19T10:09:37;94788.19;;;35.91;24.74
5380;BME280;2713;42.680;23.310;2022-08-19T10:12:07;94771.72;;;35.96;24.92
5380;BME280;2713;42.680;23.310;2022-08-19T10:14:35;94766.38;;;35.84;24.41
5380;BME280;2713;42.680;23.310;2022-08-19T10:17:02;94770.41;;;35.62;25.59
5380;BME280;2713;42.680;23.310;2022-08-19T10:19:29;94770.38;;;35.74;26.26
5380;BME280;2713;42.680;23.310;2022-08-19T10:22:03;94771.91;;;36.03;25.59
5380;BME280;2713;42.680;23.310;2022-08-19T10:24:30;94769.66;;;36.21;25.09
5380;BME280;2713;42.680;23.310;2022-08-19T10:26:57;94764.06;;;36.14;24.46
5380;BME280;2713;42.680;23.310;2022-08-19T10:29:25;94761.47;;;35.34;25.56
5380;BME280;2713;42.680;23.310;2022-08-19T10:31:54;94756.97;;;35.38;25.82
5380;BME280;2713;42.680;23.310;2022-08-19T10:34:22;94754.81;;;35.31;25.84
5380;BME280;2713;42.680;23.310;2022-08-19T10:36:49;94752.16;;;35.19;26.03
5380;BME280;2713;42.680;23.310;2022-08-19T10:39:16;94758.69;;;35.18;25.87
5380;BME280;2713;42.680;23.310;2022-08-19T10:41:43;94754.63;;;35.24;25.62
5380;BME280;2713;42.680;23.310;2022-08-19T10:44:12;94757.13;;;35.05;26.64
5380;BME280;2713;42.680;23.310;2022-08-19T10:46:41;94756.69;;;35.15;26.02
5380;BME280;2713;42.680;23.310;2022-08-19T10:49:11;94757.88;;;35.30;25.85
5380;BME280;2713;42.680;23.310;2022-08-19T10:51:38;94752.25;;;35.10;25.86
5380;BME280;2713;42.680;23.310;2022-08-19T10:54:22;94746.19;;;35.01;26.07
5380;BME280;2713;42.680;23.310;2022-08-19T10:57:09;94749.34;;;35.16;26.19
5380;BME280;2713;42.680;23.310;2022-08-19T10:59:35;94742.25;;;35.23;26.30
5380;BME280;2713;42.680;23.310;2022-08-19T11:02:04;94738.56;;;35.43;26.22
5380;BME280;2713;42.680;23.310;2022-08-19T11:04:33;94745.09;;;35.42;26.00
5380;BME280;2713;42.680;23.310;2022-08-19T11:07:00;94745.56;;;35.44;26.27
5380;BME280;2713;42.680;23.310;2022-08-19T11:09:28;94737.66;;;35.51;25.77
5380;BME280;2713;42.680;23.310;2022-08-19T11:11:55;94741.81;;;35.49;25.85
5380;BME280;2713;42.680;23.310;2022-08-19T11:14:23;94738.31;;;35.60;25.85
5380;BME280;2713;42.680;23.310;2022-08-19T11:16:51;94735.59;;;35.60;26.04
5380;BME280;2713;42.680;23.310;2022-08-19T11:19:21;94733.69;;;35.49;25.76
5380;BME280;2713;42.680;23.310;2022-08-19T11:21:51;94727.78;;;35.59;25.55
5380;BME280;2713;42.680;23.310;2022-08-19T11:24:21;94733.03;;;35.00;26.40
5380;BME280;2713;42.680;23.310;2022-08-19T11:26:50;94730.81;;;34.78;26.16
5380;BME280;2713;42.680;23.310;2022-08-19T11:29:19;94723.94;;;34.80;26.54
5380;BME280;2713;42.680;23.310;2022-08-19T11:31:48;94724.47;;;34.98;26.64
5380;BME280;2713;42.680;23.310;2022-08-19T11:34:17;94724.00;;;35.20;26.74
5380;BME280;2713;42.680;23.310;2022-08-19T11:36:45;94710.13;;;35.34;26.16
5380;BME280;2713;42.680;23.310;2022-08-19T11:39:16;94698.78;;;35.04;26.32
5380;BME280;2713;42.680;23.310;2022-08-19T11:41:43;94714.53;;;35.26;26.93
5380;BME280;2713;42.680;23.310;2022-08-19T11:44:10;94706.94;;;35.32;26.32
5380;BME280;2713;42.680;23.310;2022-08-19T11:46:40;94704.09;;;35.40;26.39
5380;BME280;2713;42.680;23.310;2022-08-19T11:49:11;94693.09;;;35.33;26.22
5380;BME280;2713;42.680;23.310;2022-08-19T11:51:39;94707.03;;;35.35;26.35
5380;BME280;2713;42.680;23.310;2022-08-19T11:54:07;94708.19;;;35.34;26.34
5380;BME280;2713;42.680;23.310;2022-08-19T11:56:36;94701.94;;;35.46;26.35
5380;BME280;2713;42.680;23.310;2022-08-19T11:59:04;94694.91;;;35.29;26.29
5380;BME280;2713;42.680;23.310;2022-08-19T12:01:31;94697.63;;;35.29;26.56
5380;BME280;2713;42.680;23.310;2022-08-19T12:03:58;94692.81;;;35.23;26.54
5380;BME280;2713;42.680;23.310;2022-08-19T12:06:27;94683.47;;;35.08;27.04
5380;BME280;2713;42.680;23.310;2022-08-19T12:08:54;94680.41;;;34.82;26.96
5380;BME280;2713;42.680;23.310;2022-08-19T12:11:22;94679.66;;;34.69;27.37
5380;BME280;2713;42.680;23.310;2022-08-19T12:13:51;94687.19;;;34.63;27.17
5380;BME280;2713;42.680;23.310;2022-08-19T12:16:20;94672.09;;;34.50;27.21
5380;BME280;2713;42.680;23.310;2022-08-19T12:18:48;94672.31;;;34.57;27.56
5380;BME280;2713;42.680;23.310;2022-08-19T12:21:18;94676.13;;;34.56;27.28
5380;BME280;2713;42.680;23.310;2022-08-19T12:23:48;94672.56;;;34.40;27.31
5380;BME280;2713;42.680;23.310;2022-08-19T12:26:15;94660.31;;;34.31;27.97
5380;BME280;2713;42.680;23.310;2022-08-19T12:28:43;94669.44;;;34.14;27.78
5380;BME280;2713;42.680;23.310;2022-08-19T12:31:11;94663.00;;;34.19;27.59
5380;BME280;2713;42.680;23.310;2022-08-19T12:33:38;94653.78;;;34.20;27.29
5380;BME280;2713;42.680;23.310;2022-08-19T12:36:09;94648.06;;;34.21;27.79
5380;BME280;2713;42.680;23.310;2022-08-19T12:38:37;94651.09;;;34.20;27.19
5380;BME280;2713;42.680;23.310;2022-08-19T12:41:05;94653.00;;;34.19;27.49
5380;BME280;2713;42.680;23.310;2022-08-19T12:43:33;94649.63;;;34.34;27.64
5380;BME280;2713;42.680;23.310;2022-08-19T12:46:00;94642.06;;;34.52;27.65
5380;BME280;2713;42.680;23.310;2022-08-19T12:48:29;94643.97;;;34.63;27.47
5380;BME280;2713;42.680;23.310;2022-08-19T12:50:56;94636.44;;;34.69;27.81
5380;BME280;2713;42.680;23.310;2022-08-19T12:53:23;94639.28;;;34.88;26.88
5380;BME280;2713;42.680;23.310;2022-08-19T12:55:55;94639.81;;;34.94;27.13
5380;BME280;2713;42.680;23.310;2022-08-19T12:58:22;94646.13;;;34.98;26.76
5380;BME280;2713;42.680;23.310;2022-08-19T13:00:49;94636.63;;;35.04;26.64
5380;BME280;2713;42.680;23.310;2022-08-19T13:03:16;94634.19;;;34.99;26.75
5380;BME280;2713;42.680;23.310;2022-08-19T13:05:44;94637.47;;;34.92;26.87
5380;BME280;2713;42.680;23.310;2022-08-19T13:08:11;94633.88;;;34.88;27.02
5380;BME280;2713;42.680;23.310;2022-08-19T13:10:38;94625.41;;;34.62;26.55
5380;BME280;2713;42.680;23.310;2022-08-19T13:13:07;94626.41;;;34.70;26.50
5380;BME280;2713;42.680;23.310;2022-08-19T13:15:36;94623.66;;;34.82;26.91
5380;BME280;2713;42.680;23.310;2022-08-19T13:18:06;94614.50;;;34.98;26.45